createdAt,value
2022-12-16T00:02:08.097Z,99234.16
2022-12-16T00:04:35.105Z,99240.13
2022-12-16T00:07:01.974Z,99241.78
2022-12-16T00:09:28.840Z,99248.66
2022-12-16T00:11:55.780Z,99241.44
2022-12-16T00:14:22.754Z,99238.66
2022-12-16T00:16:49.807Z,99239.97
2022-12-16T00:19:17.443Z,99237.69
2022-12-16T00:21:44.431Z,99240.28
2022-12-16T00:24:11.324Z,99242.09
2022-12-16T00:26:38.184Z,99246.69
2022-12-16T00:29:07.761Z,99253.59
2022-12-16T00:31:34.650Z,99253.59
2022-12-16T00:34:01.606Z,99255.13
2022-12-16T00:36:28.932Z,99260.13
2022-12-16T00:38:55.818Z,99256.28
2022-12-16T00:41:22.798Z,99247.06
2022-12-16T00:43:49.725Z,99256.78
2022-12-16T00:46:17.452Z,99258.66
2022-12-16T00:48:44.443Z,99265.22
2022-12-16T00:51:11.421Z,99266.22
2022-12-16T00:53:38.423Z,99275.31
2022-12-16T00:56:11.394Z,99274.31
2022-12-16T00:58:38.515Z,99271.78
2022-12-16T01:01:05.896Z,99286.56
2022-12-16T01:03:33.089Z,99285.47
2022-12-16T01:06:00.248Z,99285.06
2022-12-16T01:08:27.292Z,99288.19
2022-12-16T01:10:57.250Z,99282.75
2022-12-16T01:13:25.820Z,99294.75
2022-12-16T01:15:53.132Z,99302.81
2022-12-16T01:18:20.173Z,99304.75
2022-12-16T01:20:47.240Z,99314.69
2022-12-16T01:23:14.117Z,99310.34
2022-12-16T01:25:41.018Z,99315.59
2022-12-16T01:28:08.170Z,99316.25
2022-12-16T01:30:35.660Z,99310.75
2022-12-16T01:33:02.569Z,99315.84
2022-12-16T01:35:52.491Z,99314.44
2022-12-16T01:38:16.399Z,99318.78
2022-12-16T01:40:43.298Z,99310.53
2022-12-16T01:43:14.914Z,99317.88
2022-12-16T01:45:41.931Z,99309.84
2022-12-16T01:49:01.638Z,99304.94
2022-12-16T01:51:52.077Z,99320.53
2022-12-16T01:54:29.049Z,99301.00
2022-12-16T01:57:01.469Z,99302.00
2022-12-16T01:59:31.838Z,99314.13
2022-12-16T02:01:59.795Z,99300.19
2022-12-16T02:04:26.933Z,99306.75
2022-12-16T02:06:54.326Z,99316.41
2022-12-16T02:09:21.881Z,99312.66
2022-12-16T02:12:30.376Z,99315.38
2022-12-16T02:15:09.199Z,99332.16
2022-12-16T02:18:13.432Z,99336.00
2022-12-16T02:21:22.321Z,99334.63
2022-12-16T02:24:33.194Z,99338.47
2022-12-16T02:27:24.347Z,99340.53
2022-12-16T02:30:34.406Z,99336.63
2022-12-16T02:33:35.427Z,99347.09
2022-12-16T02:36:12.721Z,99347.69
2022-12-16T02:39:20.334Z,99343.97
2022-12-16T02:42:07.386Z,99358.88
2022-12-16T02:45:07.189Z,99353.50
2022-12-16T02:47:34.133Z,99361.25
2022-12-16T02:50:01.198Z,99361.34
2022-12-16T02:52:32.912Z,99365.97
2022-12-16T02:55:07.803Z,99363.63
2022-12-16T02:58:06.749Z,99372.31
2022-12-16T03:01:06.898Z,99370.94
2022-12-16T03:03:45.821Z,99363.59
2022-12-16T03:06:17.399Z,99370.84
2022-12-16T03:08:51.438Z,99378.19
2022-12-16T03:11:18.730Z,99381.97
2022-12-16T03:13:51.913Z,99374.47
2022-12-16T03:16:23.172Z,99369.00
2022-12-16T03:19:02.130Z,99382.41
2022-12-16T03:21:45.182Z,99379.78
2022-12-16T03:24:13.971Z,99380.19
2022-12-16T03:27:11.697Z,99384.47
2022-12-16T03:30:13.859Z,99385.81
2022-12-16T03:33:02.783Z,99393.88
2022-12-16T03:35:44.888Z,99394.16
2022-12-16T03:38:14.295Z,99403.44
2022-12-16T03:40:44.110Z,99397.75
2022-12-16T03:43:16.848Z,99404.91
2022-12-16T03:45:48.261Z,99407.16
2022-12-16T03:48:16.883Z,99412.25
2022-12-16T03:50:43.832Z,99415.53
2022-12-16T03:53:10.886Z,99420.91
2022-12-16T03:55:37.812Z,99424.91
2022-12-16T03:58:04.776Z,99425.38
2022-12-16T04:00:31.741Z,99430.44
2022-12-16T04:02:58.852Z,99430.13
2022-12-16T04:05:26.045Z,99432.69
2022-12-16T04:07:54.410Z,99431.84
2022-12-16T04:10:42.682Z,99440.16
2022-12-16T04:13:29.795Z,99440.72
2022-12-16T04:16:15.192Z,99448.66
2022-12-16T04:19:01.117Z,99459.09
2022-12-16T04:21:46.887Z,99459.38
2022-12-16T04:24:22.480Z,99464.19
2022-12-16T04:27:14.885Z,99469.84
2022-12-16T04:30:02.293Z,99460.91
2022-12-16T04:32:52.809Z,99463.88
2022-12-16T04:35:38.600Z,99470.75
2022-12-16T04:38:24.374Z,99465.69
2022-12-16T04:41:09.684Z,99469.44
2022-12-16T04:43:55.691Z,99473.00
2022-12-16T04:46:41.651Z,99472.78
2022-12-16T04:49:27.403Z,99481.31
2022-12-16T04:52:12.681Z,99482.41
2022-12-16T04:54:57.977Z,99489.41
2022-12-16T04:58:00.483Z,99491.06
2022-12-16T05:00:46.044Z,99491.66
2022-12-16T05:03:31.573Z,99493.91
2022-12-16T05:06:17.779Z,99493.00
2022-12-16T05:09:02.977Z,99500.91
2022-12-16T05:11:48.266Z,99501.75
2022-12-16T05:14:33.541Z,99494.09
2022-12-16T05:17:18.859Z,99500.31
2022-12-16T05:20:04.143Z,99512.66
2022-12-16T05:22:50.576Z,99506.44
2022-12-16T05:25:35.852Z,99511.28
2022-12-16T05:28:22.085Z,99519.13
2022-12-16T05:31:07.418Z,99524.19
2022-12-16T05:33:52.821Z,99532.63
2022-12-16T05:36:51.800Z,99539.22
2022-12-16T05:39:38.236Z,99535.38
2022-12-16T05:42:23.831Z,99538.69
2022-12-16T05:45:09.442Z,99537.66
2022-12-16T05:47:54.755Z,99554.31
2022-12-16T05:50:40.301Z,99559.03
2022-12-16T05:53:25.710Z,99566.00
2022-12-16T05:56:11.297Z,99577.97
2022-12-16T05:58:56.598Z,99572.81
2022-12-16T06:01:42.209Z,99582.41
2022-12-16T06:04:28.177Z,99580.00
2022-12-16T06:07:13.518Z,99584.69
2022-12-16T06:09:58.973Z,99594.84
2022-12-16T06:12:44.295Z,99599.53
2022-12-16T06:15:30.041Z,99601.53
2022-12-16T06:18:15.905Z,99608.88
2022-12-16T06:21:01.720Z,99608.03
2022-12-16T06:23:47.093Z,99605.41
2022-12-16T06:26:32.980Z,99603.69
2022-12-16T06:29:18.316Z,99606.09
2022-12-16T06:32:03.547Z,99612.13
2022-12-16T06:34:48.857Z,99621.97
2022-12-16T06:37:34.217Z,99626.06
2022-12-16T06:40:20.385Z,99624.53
2022-12-16T06:43:05.684Z,99639.59
2022-12-16T06:45:52.517Z,99638.22
2022-12-16T06:48:43.042Z,99635.84
2022-12-16T06:51:28.339Z,99649.97
2022-12-16T06:54:13.631Z,99652.84
2022-12-16T06:56:58.984Z,99652.03
2022-12-16T06:59:44.273Z,99662.06
2022-12-16T07:02:30.697Z,99675.88
2022-12-16T07:05:16.013Z,99683.16
2022-12-16T07:08:09.595Z,99688.59
2022-12-16T07:11:00.359Z,99703.19
2022-12-16T07:13:54.467Z,99707.88
2022-12-16T07:16:40.190Z,99714.84
2022-12-16T07:19:25.685Z,99718.75
2022-12-16T07:22:10.939Z,99716.09
2022-12-16T07:24:56.102Z,99722.94
2022-12-16T07:27:41.310Z,99730.09
2022-12-16T07:30:27.808Z,99724.50
2022-12-16T07:33:13.090Z,99727.88
2022-12-16T07:36:02.428Z,99731.91
2022-12-16T07:38:47.678Z,99741.81
2022-12-16T07:41:32.966Z,99737.81
2022-12-16T07:44:18.306Z,99737.44
2022-12-16T07:47:03.856Z,99738.31
2022-12-16T07:49:49.141Z,99746.78
2022-12-16T07:52:34.378Z,99761.31
2022-12-16T07:55:20.030Z,99759.66
2022-12-16T07:58:09.831Z,99753.31
2022-12-16T08:04:01.071Z,99765.09
2022-12-16T08:06:46.553Z,99775.09
2022-12-16T08:09:31.798Z,99767.03
2022-12-16T08:12:17.445Z,99763.38
2022-12-16T08:15:02.724Z,99769.09
2022-12-16T08:17:48.034Z,99772.94
2022-12-16T08:20:33.357Z,99773.06
2022-12-16T08:23:19.354Z,99783.91
2022-12-16T08:26:04.988Z,99805.31
2022-12-16T08:28:50.241Z,99804.44
2022-12-16T08:31:35.679Z,99812.50
2022-12-16T08:34:21.050Z,99809.28
2022-12-16T08:37:06.461Z,99819.00
2022-12-16T08:40:11.045Z,99835.63
2022-12-16T08:42:57.212Z,99834.31
2022-12-16T08:45:43.166Z,99829.44
2022-12-16T08:48:28.960Z,99831.59
2022-12-16T08:51:14.689Z,99829.06
2022-12-16T08:54:00.058Z,99824.75
2022-12-16T08:56:45.461Z,99822.88
2022-12-16T08:59:32.306Z,99824.75
2022-12-16T09:02:17.876Z,99834.91
2022-12-16T09:05:03.642Z,99837.09
2022-12-16T09:07:49.419Z,99847.31
2022-12-16T09:10:40.239Z,99838.88
2022-12-16T09:13:29.050Z,99857.94
2022-12-16T09:16:17.738Z,99855.50
2022-12-16T09:19:05.403Z,99844.78
2022-12-16T09:21:50.699Z,99851.66
2022-12-16T09:24:37.294Z,99865.69
2022-12-16T09:27:23.251Z,99857.72
2022-12-16T09:30:08.992Z,99862.50
2022-12-16T09:32:59.804Z,99864.56
2022-12-16T09:35:45.067Z,99867.69
2022-12-16T09:38:30.393Z,99867.44
2022-12-16T09:41:16.170Z,99866.56
2022-12-16T09:44:13.947Z,99876.06
2022-12-16T09:47:08.750Z,99870.31
2022-12-16T09:50:08.490Z,99861.78
2022-12-16T09:53:19.917Z,99877.56
2022-12-16T09:56:06.097Z,99874.72
2022-12-16T09:59:10.957Z,99870.53
2022-12-16T10:02:17.500Z,99880.50
2022-12-16T10:05:09.708Z,99876.06
2022-12-16T10:08:06.772Z,99869.72
2022-12-16T10:11:16.512Z,99879.59
2022-12-16T10:14:19.851Z,99883.63
2022-12-16T10:17:44.133Z,99878.25
2022-12-16T10:21:08.290Z,99888.00
2022-12-16T10:24:37.659Z,99875.72
2022-12-16T10:27:35.662Z,99883.34
2022-12-16T10:30:25.559Z,99870.34
2022-12-16T10:33:10.885Z,99874.19
2022-12-16T10:36:04.970Z,99875.38
2022-12-16T10:38:55.673Z,99882.91
2022-12-16T10:41:45.684Z,99877.50
2022-12-16T10:45:13.446Z,99881.25
2022-12-16T10:48:15.954Z,99862.13
2022-12-16T10:51:01.028Z,99868.75
2022-12-16T10:53:46.986Z,99873.03
2022-12-16T10:57:19.049Z,99883.72
2022-12-16T11:00:04.319Z,99872.06
2022-12-16T11:02:50.011Z,99877.00
2022-12-16T11:05:48.701Z,99874.69
2022-12-16T11:08:50.831Z,99879.47
2022-12-16T11:11:48.150Z,99884.25
2022-12-16T11:15:05.581Z,99876.69
2022-12-16T11:17:47.680Z,99868.78
2022-12-16T11:20:44.427Z,99872.72
2022-12-16T11:23:42.989Z,99880.81
2022-12-16T11:26:38.337Z,99886.00
2022-12-16T11:29:37.678Z,99888.38
2022-12-16T11:32:43.295Z,99893.31
2022-12-16T11:35:45.909Z,99896.22
2022-12-16T11:38:47.640Z,99894.50
2022-12-16T11:41:56.948Z,99898.25
2022-12-16T11:44:59.009Z,99898.13
2022-12-16T11:48:16.481Z,99904.00
2022-12-16T11:51:11.288Z,99900.81
2022-12-16T11:54:13.031Z,99905.63
2022-12-16T11:57:03.392Z,99903.53
2022-12-16T11:59:59.257Z,99904.19
2022-12-16T12:03:16.342Z,99910.06
2022-12-16T12:06:30.000Z,99916.13
2022-12-16T12:09:26.048Z,99926.75
2022-12-16T12:12:38.805Z,99933.34
2022-12-16T12:15:59.697Z,99943.47
2022-12-16T12:19:19.957Z,99937.16
2022-12-16T12:22:31.750Z,99930.72
2022-12-16T12:25:27.665Z,99929.41
2022-12-16T12:29:05.181Z,99949.91
2022-12-16T12:32:24.772Z,99949.19
2022-12-16T12:35:19.602Z,99945.47
2022-12-16T12:38:18.853Z,99951.06
2022-12-16T12:41:33.804Z,99950.75
2022-12-16T12:44:56.212Z,99950.59
2022-12-16T12:47:42.331Z,99952.47
2022-12-16T12:50:37.256Z,99956.75
2022-12-16T12:53:53.883Z,99964.44
2022-12-16T12:56:46.063Z,99968.16
2022-12-16T13:00:02.040Z,99970.75
2022-12-16T13:03:34.638Z,99965.72
2022-12-16T13:06:21.943Z,99967.16
2022-12-16T13:09:10.331Z,99973.50
2022-12-16T13:11:58.271Z,99979.59
2022-12-16T13:14:49.658Z,99980.88
2022-12-16T13:17:40.382Z,99976.56
2022-12-16T13:20:51.551Z,99982.94
2022-12-16T13:23:58.934Z,99987.91
2022-12-16T13:26:48.318Z,99991.03
2022-12-16T13:29:44.671Z,100000.53
2022-12-16T13:32:45.782Z,100007.56
2022-12-16T13:35:31.070Z,100008.69
2022-12-16T13:38:23.157Z,100005.03
2022-12-16T13:41:24.939Z,100009.81
2022-12-16T13:44:14.931Z,100002.84
2022-12-16T13:47:12.097Z,100012.41
2022-12-16T13:50:08.151Z,100026.25
2022-12-16T13:53:03.560Z,100022.41
2022-12-16T13:56:07.618Z,100038.13
2022-12-16T13:59:09.979Z,100042.78
2022-12-16T14:02:16.998Z,100048.69
2022-12-16T14:05:06.962Z,100051.22
2022-12-16T14:07:56.690Z,100058.88
2022-12-16T14:11:00.431Z,100066.91
2022-12-16T14:13:59.352Z,100065.66
2022-12-16T14:17:18.926Z,100069.44
2022-12-16T14:20:31.403Z,100077.63
2022-12-16T14:23:57.296Z,100079.00
2022-12-16T14:26:45.340Z,100086.97
2022-12-16T14:29:51.145Z,100089.84
2022-12-16T14:32:53.726Z,100098.75
2022-12-16T14:35:42.866Z,100113.31
2022-12-16T14:38:42.413Z,100119.31
2022-12-16T14:41:42.585Z,100111.66
2022-12-16T14:44:43.331Z,100125.00
2022-12-16T14:47:37.571Z,100125.88
2022-12-16T14:50:41.072Z,100137.34
2022-12-16T14:53:43.335Z,100139.31
2022-12-16T14:56:41.691Z,100146.69
2022-12-16T14:59:33.656Z,100143.09
2022-12-16T15:02:44.969Z,100165.00
2022-12-16T15:05:31.516Z,100160.59
2022-12-16T15:08:18.257Z,100168.66
2022-12-16T15:11:03.937Z,100173.31
2022-12-16T15:13:50.190Z,100177.47
2022-12-16T15:16:48.694Z,100178.03
2022-12-16T15:19:40.130Z,100182.22
2022-12-16T15:22:32.446Z,100188.06
2022-12-16T15:25:18.485Z,100200.22
2022-12-16T15:28:16.022Z,100206.00
2022-12-16T15:31:04.964Z,100213.50
2022-12-16T15:33:57.517Z,100217.59
2022-12-16T15:36:44.842Z,100215.97
2022-12-16T15:39:45.791Z,100225.38
2022-12-16T15:42:48.599Z,100226.66
2022-12-16T15:45:49.039Z,100244.59
2022-12-16T15:48:43.529Z,100249.63
2022-12-16T15:51:50.957Z,100249.00
2022-12-16T15:54:42.314Z,100255.63
2022-12-16T15:57:50.609Z,100255.47
2022-12-16T16:00:41.398Z,100259.66
2022-12-16T16:03:41.591Z,100263.34
2022-12-16T16:06:46.394Z,100270.63
2022-12-16T16:09:40.264Z,100278.28
2022-12-16T16:12:29.331Z,100281.44
2022-12-16T16:15:16.653Z,100284.56
2022-12-16T16:18:03.056Z,100285.47
2022-12-16T16:20:48.490Z,100292.38
2022-12-16T16:23:34.710Z,100292.75
2022-12-16T16:26:20.426Z,100294.09
2022-12-16T16:29:05.794Z,100292.28
2022-12-16T16:32:03.824Z,100301.06
2022-12-16T16:34:50.384Z,100305.31
2022-12-16T16:37:39.139Z,100308.28
2022-12-16T16:40:39.981Z,100304.75
2022-12-16T16:43:25.514Z,100306.91
2022-12-16T16:46:25.573Z,100304.59
2022-12-16T16:49:11.089Z,100305.59
2022-12-16T16:51:56.585Z,100301.69
2022-12-16T16:54:42.223Z,100307.75
2022-12-16T16:57:28.638Z,100312.16
2022-12-16T17:00:30.826Z,100316.44
2022-12-16T17:03:16.620Z,100333.63
2022-12-16T17:06:09.878Z,100348.44
2022-12-16T17:08:55.126Z,100350.88
2022-12-16T17:11:44.527Z,100364.06
2022-12-16T17:14:37.722Z,100364.03
2022-12-16T17:17:23.969Z,100362.88
2022-12-16T17:20:09.866Z,100370.88
2022-12-16T17:22:57.740Z,100379.75
2022-12-16T17:25:43.102Z,100379.81
2022-12-16T17:28:29.951Z,100375.53
2022-12-16T17:31:15.749Z,100379.03
2022-12-16T17:34:01.695Z,100377.19
2022-12-16T17:36:47.110Z,100380.22
2022-12-16T17:39:32.191Z,100376.22
2022-12-16T17:42:17.822Z,100383.81
2022-12-16T17:45:05.943Z,100390.78
2022-12-16T17:47:51.292Z,100395.59
2022-12-16T17:50:36.510Z,100393.44
2022-12-16T17:53:22.130Z,100399.16
2022-12-16T17:56:07.374Z,100404.13
2022-12-16T17:58:57.161Z,100407.28
2022-12-16T18:01:43.480Z,100394.63
2022-12-16T18:04:29.089Z,100399.69
2022-12-16T18:07:14.437Z,100400.88
2022-12-16T18:09:59.744Z,100410.75
2022-12-16T18:12:47.565Z,100410.53
2022-12-16T18:15:33.283Z,100417.56
2022-12-16T18:18:18.638Z,100412.81
2022-12-16T18:21:04.485Z,100420.81
2022-12-16T18:23:50.125Z,100422.91
2022-12-16T18:26:35.552Z,100427.19
2022-12-16T18:29:41.155Z,100429.88
2022-12-16T18:32:29.404Z,100431.94
2022-12-16T18:35:18.882Z,100441.19
2022-12-16T18:38:04.258Z,100447.69
2022-12-16T18:40:49.584Z,100445.81
2022-12-16T18:43:35.167Z,100453.00
2022-12-16T18:46:20.948Z,100448.84
2022-12-16T18:49:06.391Z,100455.59
2022-12-16T18:51:51.801Z,100460.28
2022-12-16T18:54:37.757Z,100459.56
2022-12-16T18:57:23.041Z,100459.94
2022-12-16T19:00:08.289Z,100460.44
2022-12-16T19:02:53.717Z,100466.28
2022-12-16T19:05:58.973Z,100471.00
2022-12-16T19:08:44.305Z,100470.22
2022-12-16T19:11:29.662Z,100460.94
2022-12-16T19:14:14.880Z,100463.78
2022-12-16T19:17:00.085Z,100485.72
2022-12-16T19:19:45.380Z,100490.50
2022-12-16T19:22:41.486Z,100501.19
2022-12-16T19:25:27.462Z,100525.53
2022-12-16T19:28:12.912Z,100525.31
2022-12-16T19:30:58.597Z,100515.63
2022-12-16T19:33:44.109Z,100528.81
2022-12-16T19:36:29.463Z,100534.69
2022-12-16T19:39:14.879Z,100549.09
2022-12-16T19:42:00.086Z,100555.34
2022-12-16T19:44:45.807Z,100565.91
2022-12-16T19:47:31.070Z,100569.19
2022-12-16T19:50:16.321Z,100564.47
2022-12-16T19:53:02.139Z,100562.75
2022-12-16T19:55:47.583Z,100567.78
2022-12-16T19:58:41.261Z,100570.22
2022-12-16T20:01:28.305Z,100570.09
2022-12-16T20:04:13.967Z,100571.00
2022-12-16T20:06:59.322Z,100578.66
2022-12-16T20:09:45.416Z,100591.50
2022-12-16T20:12:31.453Z,100587.41
2022-12-16T20:15:16.758Z,100594.59
2022-12-16T20:18:02.189Z,100595.88
2022-12-16T20:20:47.265Z,100605.06
2022-12-16T20:23:32.496Z,100594.59
2022-12-16T20:26:20.159Z,100601.06
2022-12-16T20:29:06.501Z,100605.38
2022-12-16T20:31:52.293Z,100604.66
2022-12-16T20:34:41.115Z,100599.72
2022-12-16T20:37:26.355Z,100607.84
2022-12-16T20:40:11.634Z,100610.84
2022-12-16T20:42:56.766Z,100618.25
2022-12-16T20:45:41.912Z,100608.06
2022-12-16T20:48:33.270Z,100620.63
2022-12-16T20:54:30.232Z,100620.50
2022-12-16T20:57:15.366Z,100622.25
2022-12-16T21:00:11.116Z,100618.38
2022-12-16T21:02:56.592Z,100628.44
2022-12-16T21:05:41.913Z,100621.69
2022-12-16T21:08:27.234Z,100632.38
2022-12-16T21:11:16.122Z,100636.31
2022-12-16T21:14:01.376Z,100625.88
2022-12-16T21:14:42.771Z,100625.19
2022-12-16T21:16:46.498Z,100630.28
2022-12-16T21:19:33.734Z,100639.34
2022-12-16T21:22:19.809Z,100637.88
2022-12-16T21:25:05.076Z,100653.09
2022-12-16T21:27:50.403Z,100650.03
2022-12-16T21:30:35.569Z,100651.34
2022-12-16T21:33:20.853Z,100656.69
2022-12-16T21:36:13.537Z,100668.84
2022-12-16T21:38:58.989Z,100670.66
2022-12-16T21:41:44.251Z,100681.66
2022-12-16T21:44:29.496Z,100685.09
2022-12-16T21:47:14.989Z,100694.75
2022-12-16T21:50:00.529Z,100699.09
2022-12-16T21:52:46.130Z,100708.03
2022-12-16T21:55:32.257Z,100703.47
2022-12-16T21:58:30.951Z,100707.97
2022-12-16T22:01:18.150Z,100700.19
2022-12-16T22:04:04.025Z,100706.63
2022-12-16T22:06:49.386Z,100709.66
2022-12-16T22:09:35.492Z,100712.63
2022-12-16T22:12:21.301Z,100728.84
2022-12-16T22:15:06.417Z,100734.28
2022-12-16T22:17:57.689Z,100747.56
2022-12-16T22:20:44.212Z,100743.19
2022-12-16T22:23:29.404Z,100750.66
2022-12-16T22:26:16.988Z,100753.97
2022-12-16T22:29:02.196Z,100748.31
2022-12-16T22:31:47.663Z,100745.91
2022-12-16T22:34:33.262Z,100747.66
2022-12-16T22:37:18.477Z,100755.28
2022-12-16T22:40:03.758Z,100753.91
2022-12-16T22:42:49.082Z,100767.13
2022-12-16T22:45:34.549Z,100757.06
2022-12-16T22:48:19.673Z,100755.50
2022-12-16T22:51:05.079Z,100769.81
2022-12-16T22:53:50.288Z,100771.03
2022-12-16T22:56:35.561Z,100772.09
2022-12-16T22:59:20.749Z,100774.16
2022-12-16T23:02:06.031Z,100778.59
2022-12-16T23:04:51.401Z,100785.94
2022-12-16T23:07:37.540Z,100788.00
2022-12-16T23:10:24.142Z,100791.94
2022-12-16T23:13:09.306Z,100790.69
2022-12-16T23:15:56.470Z,100789.25
2022-12-16T23:18:42.021Z,100801.56
2022-12-16T23:21:35.102Z,100803.78
2022-12-16T23:24:20.335Z,100802.50
2022-12-16T23:27:05.618Z,100805.09
2022-12-16T23:29:50.890Z,100808.69
2022-12-16T23:32:40.754Z,100806.59
2022-12-16T23:35:26.683Z,100802.66
2022-12-16T23:38:23.267Z,100791.84
2022-12-16T23:41:16.005Z,100787.00
2022-12-16T23:44:02.107Z,100789.22
2022-12-16T23:46:47.962Z,100811.78
2022-12-16T23:49:33.241Z,100806.56
2022-12-16T23:52:18.753Z,100817.88
2022-12-16T23:55:03.802Z,100827.84
2022-12-16T23:57:49.140Z,100826.91
